sensor_id;sensor_type;location;lat;lon;timestamp;pressure;altitude;pressure_sealevel;temperature;humidity
68634;BME280;55625;47.072;22.192;2023-04-26T00:00:49;98895.41;;;7.12;99.84
68634;BME280;55625;47.072;22.192;2023-04-26T00:03:15;98882.53;;;7.11;100.00
68634;BME280;55625;47.072;22.192;2023-04-26T00:05:41;98881.09;;;7.07;100.00
68634;BME280;55625;47.072;22.192;2023-04-26T00:08:07;98893.94;;;7.08;100.00
68634;BME280;55625;47.072;22.192;2023-04-26T00:10:33;98877.47;;;7.06;100.00
68634;BME280;55625;47.072;22.192;2023-04-26T00:12:59;98883.13;;;7.06;100.00
68634;BME280;55625;47.072;22.192;2023-04-26T00:15:25;98884.34;;;7.05;99.89
68634;BME280;55625;47.072;22.192;2023-04-26T00:17:51;98895.63;;;7.05;99.36
68634;BME280;55625;47.072;22.192;2023-04-26T00:20:17;98889.63;;;7.03;99.75
68634;BME280;55625;47.072;22.192;2023-04-26T00:22:43;98893.69;;;7.02;99.65
68634;BME280;55625;47.072;22.192;2023-04-26T00:25:09;98897.31;;;7.03;99.29
68634;BME280;55625;47.072;22.192;2023-04-26T00:27:35;98902.94;;;7.03;100.00
68634;BME280;55625;47.072;22.192;2023-04-26T00:30:01;98907.78;;;7.02;99.41
68634;BME280;55625;47.072;22.192;2023-04-26T00:32:27;98907.00;;;7.02;99.33
68634;BME280;55625;47.072;22.192;2023-04-26T00:34:54;98903.06;;;6.99;98.79
68634;BME280;55625;47.072;22.192;2023-04-26T00:37:20;98904.19;;;7.02;98.58
68634;BME280;55625;47.072;22.192;2023-04-26T00:39:46;98899.09;;;6.97;99.45
68634;BME280;55625;47.072;22.192;2023-04-26T00:42:12;98902.72;;;6.97;99.32
68634;BME280;55625;47.072;22.192;2023-04-26T00:44:37;98902.72;;;6.97;99.98
68634;BME280;55625;47.072;22.192;2023-04-26T00:47:04;98899.31;;;6.90;100.00
68634;BME280;55625;47.072;22.192;2023-04-26T00:49:30;98903.38;;;6.89;100.00
68634;BME280;55625;47.072;22.192;2023-04-26T00:51:56;98902.25;;;6.86;100.00
68634;BME280;55625;47.072;22.192;2023-04-26T00:54:23;98904.41;;;6.82;100.00
68634;BME280;55625;47.072;22.192;2023-04-26T00:56:50;98895.59;;;6.80;100.00
68634;BME280;55625;47.072;22.192;2023-04-26T00:59:19;98904.63;;;6.75;100.00
68634;BME280;55625;47.072;22.192;2023-04-26T01:01:45;98903.03;;;6.74;100.00
68634;BME280;55625;47.072;22.192;2023-04-26T01:04:12;98911.50;;;6.74;100.00
68634;BME280;55625;47.072;22.192;2023-04-26T01:06:39;98906.38;;;6.69;100.00
68634;BME280;55625;47.072;22.192;2023-04-26T01:09:06;98906.38;;;6.69;100.00
68634;BME280;55625;47.072;22.192;2023-04-26T01:11:35;98907.63;;;6.68;100.00
68634;BME280;55625;47.072;22.192;2023-04-26T01:14:03;98910.09;;;6.66;100.00
68634;BME280;55625;47.072;22.192;2023-04-26T01:16:30;98916.97;;;6.65;100.00
68634;BME280;55625;47.072;22.192;2023-04-26T01:18:56;98914.16;;;6.65;100.00
68634;BME280;55625;47.072;22.192;2023-04-26T01:21:23;98915.41;;;6.64;100.00
68634;BME280;55625;47.072;22.192;2023-04-26T01:23:50;98919.13;;;6.61;100.00
68634;BME280;55625;47.072;22.192;2023-04-26T01:26:17;98920.69;;;6.62;100.00
68634;BME280;55625;47.072;22.192;2023-04-26T01:28:43;98929.59;;;6.60;100.00
68634;BME280;55625;47.072;22.192;2023-04-26T01:31:11;98929.16;;;6.62;100.00
68634;BME280;55625;47.072;22.192;2023-04-26T01:33:37;98934.00;;;6.61;100.00
68634;BME280;55625;47.072;22.192;2023-04-26T01:36:08;98924.31;;;6.62;100.00
68634;BME280;55625;47.072;22.192;2023-04-26T01:38:37;98930.38;;;6.61;100.00
68634;BME280;55625;47.072;22.192;2023-04-26T01:41:03;98930.03;;;6.59;100.00
68634;BME280;55625;47.072;22.192;2023-04-26T01:43:29;98929.25;;;6.58;100.00
68634;BME280;55625;47.072;22.192;2023-04-26T01:45:55;98926.00;;;6.60;99.95
68634;BME280;55625;47.072;22.192;2023-04-26T01:48:21;98937.25;;;6.60;100.00
68634;BME280;55625;47.072;22.192;2023-04-26T01:50:47;98938.84;;;6.61;100.00
68634;BME280;55625;47.072;22.192;2023-04-26T01:53:13;98936.56;;;6.56;100.00
68634;BME280;55625;47.072;22.192;2023-04-26T01:55:38;98933.41;;;6.53;100.00
68634;BME280;55625;47.072;22.192;2023-04-26T01:58:04;98930.25;;;6.51;100.00
68634;BME280;55625;47.072;22.192;2023-04-26T02:00:32;98929.00;;;6.52;100.00
68634;BME280;55625;47.072;22.192;2023-04-26T02:02:58;98931.38;;;6.54;100.00
68634;BME280;55625;47.072;22.192;2023-04-26T02:05:24;98939.53;;;6.65;98.73
68634;BME280;55625;47.072;22.192;2023-04-26T02:07:50;98939.19;;;6.63;98.16
68634;BME280;55625;47.072;22.192;2023-04-26T02:10:16;98942.00;;;6.63;98.38
68634;BME280;55625;47.072;22.192;2023-04-26T02:12:41;98938.75;;;6.64;98.55
68634;BME280;55625;47.072;22.192;2023-04-26T02:15:08;98943.59;;;6.64;98.75
68634;BME280;55625;47.072;22.192;2023-04-26T02:17:34;98943.94;;;6.66;99.50
68634;BME280;55625;47.072;22.192;2023-04-26T02:20:03;98941.44;;;6.68;98.96
68634;BME280;55625;47.072;22.192;2023-04-26T02:22:29;98937.84;;;6.67;98.93
68634;BME280;55625;47.072;22.192;2023-04-26T02:24:55;98941.78;;;6.70;99.20
68634;BME280;55625;47.072;22.192;2023-04-26T02:27:21;98935.72;;;6.71;99.64
68634;BME280;55625;47.072;22.192;2023-04-26T02:29:48;98933.69;;;6.72;98.28
68634;BME280;55625;47.072;22.192;2023-04-26T02:32:14;98939.31;;;6.72;97.71
68634;BME280;55625;47.072;22.192;2023-04-26T02:34:40;98943.38;;;6.71;97.71
68634;BME280;55625;47.072;22.192;2023-04-26T02:37:07;98940.91;;;6.73;98.29
68634;BME280;55625;47.072;22.192;2023-04-26T02:39:33;98933.22;;;6.73;97.86
68634;BME280;55625;47.072;22.192;2023-04-26T02:41:59;98944.09;;;6.75;98.68
68634;BME280;55625;47.072;22.192;2023-04-26T02:44:28;98945.13;;;6.81;97.30
68634;BME280;55625;47.072;22.192;2023-04-26T02:46:56;98934.28;;;6.79;98.07
68634;BME280;55625;47.072;22.192;2023-04-26T02:49:22;98941.84;;;6.82;97.31
68634;BME280;55625;47.072;22.192;2023-04-26T02:51:48;98938.13;;;6.85;97.69
68634;BME280;55625;47.072;22.192;2023-04-26T02:54:14;98945.13;;;6.81;96.90
68634;BME280;55625;47.072;22.192;2023-04-26T02:56:40;98943.88;;;6.82;96.87
68634;BME280;55625;47.072;22.192;2023-04-26T02:59:06;98948.72;;;6.81;97.17
68634;BME280;55625;47.072;22.192;2023-04-26T03:01:32;98943.97;;;6.78;97.92
68634;BME280;55625;47.072;22.192;2023-04-26T03:03:58;98947.25;;;6.77;98.06
68634;BME280;55625;47.072;22.192;2023-04-26T03:06:24;98947.59;;;6.79;96.55
68634;BME280;55625;47.072;22.192;2023-04-26T03:08:49;98947.38;;;6.86;96.20
68634;BME280;55625;47.072;22.192;2023-04-26T03:11:15;98955.59;;;6.80;96.89
68634;BME280;55625;47.072;22.192;2023-04-26T03:13:41;98954.03;;;6.79;96.47
68634;BME280;55625;47.072;22.192;2023-04-26T03:16:07;98959.22;;;6.81;96.79
68634;BME280;55625;47.072;22.192;2023-04-26T03:18:33;98960.47;;;6.80;97.15
68634;BME280;55625;47.072;22.192;2023-04-26T03:20:59;98962.50;;;6.79;98.27
68634;BME280;55625;47.072;22.192;2023-04-26T03:23:24;98966.09;;;6.80;98.20
68634;BME280;55625;47.072;22.192;2023-04-26T03:25:51;98967.69;;;6.81;97.66
68634;BME280;55625;47.072;22.192;2023-04-26T03:28:16;98978.63;;;6.79;98.71
68634;BME280;55625;47.072;22.192;2023-04-26T03:30:42;98970.59;;;6.77;98.03
68634;BME280;55625;47.072;22.192;2023-04-26T03:33:08;98982.66;;;6.78;97.60
68634;BME280;55625;47.072;22.192;2023-04-26T03:35:34;98981.88;;;6.77;99.22
68634;BME280;55625;47.072;22.192;2023-04-26T03:38:00;98979.84;;;6.78;99.43
68634;BME280;55625;47.072;22.192;2023-04-26T03:40:26;98987.88;;;6.79;100.00
68634;BME280;55625;47.072;22.192;2023-04-26T03:42:52;98986.53;;;6.84;99.12
68634;BME280;55625;47.072;22.192;2023-04-26T03:45:18;98999.50;;;6.81;98.79
68634;BME280;55625;47.072;22.192;2023-04-26T03:47:43;98992.16;;;6.84;99.26
68634;BME280;55625;47.072;22.192;2023-04-26T03:50:09;98992.16;;;6.84;98.37
68634;BME280;55625;47.072;22.192;2023-04-26T03:52:35;99000.19;;;6.85;99.13
68634;BME280;55625;47.072;22.192;2023-04-26T03:55:01;98996.00;;;6.90;99.02
68634;BME280;55625;47.072;22.192;2023-04-26T03:57:28;99010.56;;;6.89;99.27
68634;BME280;55625;47.072;22.192;2023-04-26T03:59:54;99009.66;;;6.92;98.60
68634;BME280;55625;47.072;22.192;2023-04-26T04:02:20;99003.91;;;6.95;97.54
68634;BME280;55625;47.072;22.192;2023-04-26T04:04:45;99010.69;;;6.98;99.13
68634;BME280;55625;47.072;22.192;2023-04-26T04:07:11;99018.72;;;6.99;98.60
68634;BME280;55625;47.072;22.192;2023-04-26T04:09:37;99025.47;;;7.02;98.07
68634;BME280;55625;47.072;22.192;2023-04-26T04:12:03;99022.22;;;7.03;97.96
68634;BME280;55625;47.072;22.192;2023-04-26T04:14:29;99027.00;;;7.06;98.50
68634;BME280;55625;47.072;22.192;2023-04-26T04:16:55;99032.97;;;7.08;98.58
68634;BME280;55625;47.072;22.192;2023-04-26T04:19:21;99034.00;;;7.14;97.92
68634;BME280;55625;47.072;22.192;2023-04-26T04:21:47;99031.19;;;7.14;95.69
68634;BME280;55625;47.072;22.192;2023-04-26T04:24:12;99034.69;;;7.19;96.32
68634;BME280;55625;47.072;22.192;2023-04-26T04:26:38;99045.75;;;7.26;95.28
68634;BME280;55625;47.072;22.192;2023-04-26T04:29:04;99050.16;;;7.27;95.61
68634;BME280;55625;47.072;22.192;2023-04-26T04:31:36;99046.78;;;7.32;95.47
68634;BME280;55625;47.072;22.192;2023-04-26T04:34:03;99044.69;;;7.36;96.36
68634;BME280;55625;47.072;22.192;2023-04-26T04:36:28;99056.19;;;7.41;95.41
68634;BME280;55625;47.072;22.192;2023-04-26T04:38:55;99054.84;;;7.46;96.19
68634;BME280;55625;47.072;22.192;2023-04-26T04:41:21;99057.22;;;7.47;96.34
68634;BME280;55625;47.072;22.192;2023-04-26T04:43:48;99059.59;;;7.49;95.92
68634;BME280;55625;47.072;22.192;2023-04-26T04:46:13;99064.00;;;7.50;96.25
68634;BME280;55625;47.072;22.192;2023-04-26T04:48:40;99057.09;;;7.51;96.21
68634;BME280;55625;47.072;22.192;2023-04-26T04:51:06;99067.16;;;7.65;93.44
68634;BME280;55625;47.072;22.192;2023-04-26T04:53:33;99069.47;;;7.70;93.95
68634;BME280;55625;47.072;22.192;2023-04-26T04:55:58;99070.59;;;7.72;93.50
68634;BME280;55625;47.072;22.192;2023-04-26T04:58:24;99074.44;;;7.78;93.02
68634;BME280;55625;47.072;22.192;2023-04-26T05:00:50;99058.16;;;7.83;94.14
68634;BME280;55625;47.072;22.192;2023-04-26T05:03:18;99078.28;;;7.85;93.32
68634;BME280;55625;47.072;22.192;2023-04-26T05:05:44;99078.84;;;7.79;94.03
68634;BME280;55625;47.072;22.192;2023-04-26T05:08:10;99083.25;;;7.81;93.24
68634;BME280;55625;47.072;22.192;2023-04-26T05:10:36;99080.63;;;7.73;92.27
68634;BME280;55625;47.072;22.192;2023-04-26T05:13:02;99078.50;;;7.77;93.58
68634;BME280;55625;47.072;22.192;2023-04-26T05:15:28;99079.41;;;7.87;93.33
68634;BME280;55625;47.072;22.192;2023-04-26T05:17:54;99086.50;;;7.92;93.00
68634;BME280;55625;47.072;22.192;2023-04-26T05:20:21;99078.28;;;7.97;92.80
68634;BME280;55625;47.072;22.192;2023-04-26T05:22:46;99092.53;;;8.06;91.74
68634;BME280;55625;47.072;22.192;2023-04-26T05:25:12;99094.91;;;8.08;92.19
68634;BME280;55625;47.072;22.192;2023-04-26T05:27:38;99090.25;;;8.14;92.22
68634;BME280;55625;47.072;22.192;2023-04-26T05:30:06;99088.91;;;8.19;91.97
68634;BME280;55625;47.072;22.192;2023-04-26T05:32:32;99091.47;;;8.26;91.12
68634;BME280;55625;47.072;22.192;2023-04-26T05:34:58;99096.13;;;8.32;92.22
68634;BME280;55625;47.072;22.192;2023-04-26T05:37:24;99089.94;;;8.37;91.09
68634;BME280;55625;47.072;22.192;2023-04-26T05:39:50;99104.75;;;8.42;89.93
68634;BME280;55625;47.072;22.192;2023-04-26T05:42:16;99105.63;;;8.51;89.13
68634;BME280;55625;47.072;22.192;2023-04-26T05:44:41;99105.16;;;8.65;89.90
68634;BME280;55625;47.072;22.192;2023-04-26T05:47:08;99111.31;;;8.86;88.96
68634;BME280;55625;47.072;22.192;2023-04-26T05:49:34;99110.91;;;9.09;89.34
68634;BME280;55625;47.072;22.192;2023-04-26T05:52:00;99114.25;;;9.17;88.58
68634;BME280;55625;47.072;22.192;2023-04-26T05:54:28;99131.63;;;9.19;88.02
68634;BME280;55625;47.072;22.192;2023-04-26T05:56:54;99129.47;;;9.10;88.69
68634;BME280;55625;47.072;22.192;2023-04-26T05:59:20;99122.22;;;9.09;88.71
68634;BME280;55625;47.072;22.192;2023-04-26T06:01:45;99129.94;;;9.09;86.88
68634;BME280;55625;47.072;22.192;2023-04-26T06:04:11;99131.19;;;9.08;86.47
68634;BME280;55625;47.072;22.192;2023-04-26T06:06:37;99132.84;;;9.18;87.24
68634;BME280;55625;47.072;22.192;2023-04-26T06:09:03;99138.94;;;9.16;88.22
68634;BME280;55625;47.072;22.192;2023-04-26T06:11:29;99148.78;;;9.24;88.75
68634;BME280;55625;47.072;22.192;2023-04-26T06:13:55;99139.91;;;9.35;86.46
68634;BME280;55625;47.072;22.192;2023-04-26T06:16:22;99144.13;;;9.30;86.51
68634;BME280;55625;47.072;22.192;2023-04-26T06:18:48;99144.31;;;9.36;86.12
68634;BME280;55625;47.072;22.192;2023-04-26T06:21:13;99155.16;;;9.50;87.18
68634;BME280;55625;47.072;22.192;2023-04-26T06:23:39;99158.41;;;9.49;85.43
68634;BME280;55625;47.072;22.192;2023-04-26T06:26:05;99169.44;;;9.69;86.63
68634;BME280;55625;47.072;22.192;2023-04-26T06:28:31;99165.03;;;9.68;84.33
68634;BME280;55625;47.072;22.192;2023-04-26T06:30:57;99171.44;;;9.81;85.72
68634;BME280;55625;47.072;22.192;2023-04-26T06:33:23;99162.13;;;9.80;85.40
68634;BME280;55625;47.072;22.192;2023-04-26T06:35:49;99163.25;;;9.83;84.39
68634;BME280;55625;47.072;22.192;2023-04-26T06:38:14;99159.41;;;9.77;82.78
68634;BME280;55625;47.072;22.192;2023-04-26T06:40:41;99164.28;;;9.76;84.43
68634;BME280;55625;47.072;22.192;2023-04-26T06:43:07;99161.25;;;9.92;83.38
68634;BME280;55625;47.072;22.192;2023-04-26T06:45:33;99172.88;;;9.63;83.93
68634;BME280;55625;47.072;22.192;2023-04-26T06:47:59;99164.56;;;9.91;85.38
68634;BME280;55625;47.072;22.192;2023-04-26T06:50:29;99180.06;;;10.08;86.94
68634;BME280;55625;47.072;22.192;2023-04-26T06:52:55;99177.06;;;10.24;85.11
68634;BME280;55625;47.072;22.192;2023-04-26T06:55:21;99171.75;;;10.36;84.67
68634;BME280;55625;47.072;22.192;2023-04-26T06:57:48;99176.44;;;10.30;82.74
68634;BME280;55625;47.072;22.192;2023-04-26T07:00:15;99173.56;;;10.51;83.51
68634;BME280;55625;47.072;22.192;2023-04-26T07:02:42;99177.19;;;10.52;82.87
68634;BME280;55625;47.072;22.192;2023-04-26T07:05:08;99185.69;;;10.52;81.47
68634;BME280;55625;47.072;22.192;2023-04-26T07:07:34;99177.13;;;10.74;82.86
68634;BME280;55625;47.072;22.192;2023-04-26T07:10:01;99176.16;;;10.37;81.71
68634;BME280;55625;47.072;22.192;2023-04-26T07:12:27;99188.56;;;10.61;83.31
68634;BME280;55625;47.072;22.192;2023-04-26T07:14:53;99202.97;;;10.76;83.44
68634;BME280;55625;47.072;22.192;2023-04-26T07:17:19;99194.88;;;10.65;79.48
68634;BME280;55625;47.072;22.192;2023-04-26T07:19:46;99192.09;;;10.74;76.81
68634;BME280;55625;47.072;22.192;2023-04-26T07:22:11;99192.66;;;10.60;79.28
68634;BME280;55625;47.072;22.192;2023-04-26T07:24:37;99193.56;;;10.97;80.40
68634;BME280;55625;47.072;22.192;2023-04-26T07:27:03;99186.81;;;11.22;77.40
68634;BME280;55625;47.072;22.192;2023-04-26T07:29:29;99188.25;;;11.27;78.22
68634;BME280;55625;47.072;22.192;2023-04-26T07:31:55;99196.22;;;10.92;75.95
68634;BME280;55625;47.072;22.192;2023-04-26T07:34:21;99197.50;;;10.91;77.57
68634;BME280;55625;47.072;22.192;2023-04-26T07:36:47;99210.09;;;10.80;78.81
68634;BME280;55625;47.072;22.192;2023-04-26T07:39:13;99200.97;;;10.95;78.83
68634;BME280;55625;47.072;22.192;2023-04-26T07:41:40;99209.63;;;10.91;78.56
68634;BME280;55625;47.072;22.192;2023-04-26T07:44:06;99217.75;;;11.11;79.45
68634;BME280;55625;47.072;22.192;2023-04-26T07:46:33;99216.97;;;11.19;77.65
68634;BME280;55625;47.072;22.192;2023-04-26T07:48:59;99207.22;;;11.48;77.32
68634;BME280;55625;47.072;22.192;2023-04-26T07:51:26;99202.50;;;11.72;76.63
68634;BME280;55625;47.072;22.192;2023-04-26T07:53:52;99210.22;;;11.90;75.65
68634;BME280;55625;47.072;22.192;2023-04-26T07:56:20;99211.81;;;12.00;73.57
68634;BME280;55625;47.072;22.192;2023-04-26T07:58:46;99212.78;;;11.88;69.92
68634;BME280;55625;47.072;22.192;2023-04-26T08:01:12;99211.66;;;11.86;70.96
68634;BME280;55625;47.072;22.192;2023-04-26T08:03:37;99218.59;;;11.94;71.69
68634;BME280;55625;47.072;22.192;2023-04-26T08:06:03;99210.69;;;12.07;69.81
68634;BME280;55625;47.072;22.192;2023-04-26T08:08:29;99213.38;;;12.10;70.01
68634;BME280;55625;47.072;22.192;2023-04-26T08:10:57;99226.31;;;12.21;69.93
68634;BME280;55625;47.072;22.192;2023-04-26T08:13:23;99222.19;;;12.22;69.58
68634;BME280;55625;47.072;22.192;2023-04-26T08:15:49;99234.19;;;12.35;67.36
68634;BME280;55625;47.072;22.192;2023-04-26T08:18:15;99228.84;;;12.28;69.77
68634;BME280;55625;47.072;22.192;2023-04-26T08:20:41;99235.00;;;12.17;70.35
68634;BME280;55625;47.072;22.192;2023-04-26T08:23:07;99230.91;;;12.27;71.02
68634;BME280;55625;47.072;22.192;2023-04-26T08:25:33;99231.34;;;12.35;68.98
68634;BME280;55625;47.072;22.192;2023-04-26T08:27:59;99234.84;;;12.30;70.66
68634;BME280;55625;47.072;22.192;2023-04-26T08:30:26;99233.75;;;12.18;67.76
68634;BME280;55625;47.072;22.192;2023-04-26T08:32:52;99235.19;;;12.04;68.66
68634;BME280;55625;47.072;22.192;2023-04-26T08:35:18;99234.56;;;12.09;68.46
68634;BME280;55625;47.072;22.192;2023-04-26T08:37:43;99239.91;;;12.17;66.39
68634;BME280;55625;47.072;22.192;2023-04-26T08:40:09;99234.69;;;12.24;66.74
68634;BME280;55625;47.072;22.192;2023-04-26T08:42:40;99236.91;;;12.20;67.52
68634;BME280;55625;47.072;22.192;2023-04-26T08:45:10;99237.72;;;11.75;67.08
68634;BME280;55625;47.072;22.192;2023-04-26T08:50:05;99248.75;;;11.45;69.37
68634;BME280;55625;47.072;22.192;2023-04-26T08:52:34;99252.22;;;11.59;69.85
68634;BME280;55625;47.072;22.192;2023-04-26T08:55:00;99259.03;;;11.70;71.23
68634;BME280;55625;47.072;22.192;2023-04-26T08:57:27;99268.06;;;11.78;67.93
68634;BME280;55625;47.072;22.192;2023-04-26T08:59:56;99269.47;;;11.92;69.13
68634;BME280;55625;47.072;22.192;2023-04-26T09:02:23;99259.06;;;12.07;68.00
68634;BME280;55625;47.072;22.192;2023-04-26T09:04:50;99273.25;;;12.16;65.12
68634;BME280;55625;47.072;22.192;2023-04-26T09:07:39;99281.47;;;12.23;67.56
68634;BME280;55625;47.072;22.192;2023-04-26T09:10:05;99279.41;;;12.24;66.25
68634;BME280;55625;47.072;22.192;2023-04-26T09:12:33;99280.53;;;12.26;66.52
68634;BME280;55625;47.072;22.192;2023-04-26T09:14:59;99294.41;;;12.24;65.93
68634;BME280;55625;47.072;22.192;2023-04-26T09:17:28;99283.84;;;12.25;66.84
68634;BME280;55625;47.072;22.192;2023-04-26T09:19:55;99286.38;;;12.04;64.23
68634;BME280;55625;47.072;22.192;2023-04-26T09:22:33;99283.84;;;12.16;64.81
68634;BME280;55625;47.072;22.192;2023-04-26T09:25:02;99283.53;;;12.32;64.47
68634;BME280;55625;47.072;22.192;2023-04-26T09:27:38;99282.84;;;12.46;63.28
68634;BME280;55625;47.072;22.192;2023-04-26T09:30:12;99287.84;;;12.79;64.97
68634;BME280;55625;47.072;22.192;2023-04-26T09:33:01;99282.03;;;12.64;62.02
68634;BME280;55625;47.072;22.192;2023-04-26T09:35:37;99287.53;;;12.77;62.16
68634;BME280;55625;47.072;22.192;2023-04-26T09:38:16;99291.22;;;12.59;60.63
68634;BME280;55625;47.072;22.192;2023-04-26T09:40:48;99291.69;;;12.66;63.73
68634;BME280;55625;47.072;22.192;2023-04-26T09:43:19;99296.41;;;12.69;61.75
68634;BME280;55625;47.072;22.192;2023-04-26T09:45:53;99302.28;;;12.66;61.13
68634;BME280;55625;47.072;22.192;2023-04-26T09:48:24;99301.78;;;12.67;60.31
68634;BME280;55625;47.072;22.192;2023-04-26T09:50:57;99288.69;;;12.61;61.95
68634;BME280;55625;47.072;22.192;2023-04-26T09:53:40;99297.38;;;12.66;62.54
68634;BME280;55625;47.072;22.192;2023-04-26T09:56:16;99298.16;;;12.67;58.76
68634;BME280;55625;47.072;22.192;2023-04-26T10:01:17;99294.25;;;12.55;60.30
68634;BME280;55625;47.072;22.192;2023-04-26T10:03:44;99285.28;;;12.29;60.15
68634;BME280;55625;47.072;22.192;2023-04-26T10:06:12;99285.41;;;12.44;61.72
68634;BME280;55625;47.072;22.192;2023-04-26T10:08:38;99286.63;;;12.52;61.42
68634;BME280;55625;47.072;22.192;2023-04-26T10:11:04;99280.13;;;12.70;61.93
68634;BME280;55625;47.072;22.192;2023-04-26T10:13:32;99287.16;;;12.93;60.36
68634;BME280;55625;47.072;22.192;2023-04-26T10:16:02;99287.13;;;13.02;59.58
68634;BME280;55625;47.072;22.192;2023-04-26T10:18:30;99276.28;;;13.15;59.80
68634;BME280;55625;47.072;22.192;2023-04-26T10:21:10;99292.06;;;13.34;57.96
68634;BME280;55625;47.072;22.192;2023-04-26T10:23:37;99290.47;;;13.33;57.77
68634;BME280;55625;47.072;22.192;2023-04-26T10:26:04;99294.28;;;13.30;58.62
68634;BME280;55625;47.072;22.192;2023-04-26T10:31:05;99296.00;;;12.43;58.68
68634;BME280;55625;47.072;22.192;2023-04-26T10:33:32;99293.22;;;12.77;60.11
68634;BME280;55625;47.072;22.192;2023-04-26T10:36:12;99296.63;;;12.99;58.99
68634;BME280;55625;47.072;22.192;2023-04-26T10:38:41;99302.44;;;12.62;57.77
68634;BME280;55625;47.072;22.192;2023-04-26T10:41:30;99299.97;;;12.28;58.33
68634;BME280;55625;47.072;22.192;2023-04-26T10:43:58;99297.44;;;12.30;57.62
68634;BME280;55625;47.072;22.192;2023-04-26T10:46:39;99298.03;;;12.52;59.43
68634;BME280;55625;47.072;22.192;2023-04-26T10:49:19;99303.44;;;12.23;59.49
68634;BME280;55625;47.072;22.192;2023-04-26T10:52:10;99307.38;;;12.43;60.14
68634;BME280;55625;47.072;22.192;2023-04-26T10:57:16;99309.41;;;12.52;59.57
68634;BME280;55625;47.072;22.192;2023-04-26T11:05:51;99317.31;;;12.57;56.72
68634;BME280;55625;47.072;22.192;2023-04-26T11:08:27;99298.81;;;12.62;57.04
68634;BME280;55625;47.072;22.192;2023-04-26T11:11:04;99303.69;;;12.70;55.60
68634;BME280;55625;47.072;22.192;2023-04-26T11:13:40;99306.25;;;12.50;53.22
68634;BME280;55625;47.072;22.192;2023-04-26T11:16:14;99305.00;;;12.24;56.90
68634;BME280;55625;47.072;22.192;2023-04-26T11:18:44;99308.13;;;12.62;55.78
68634;BME280;55625;47.072;22.192;2023-04-26T11:21:11;99303.22;;;12.63;57.00
68634;BME280;55625;47.072;22.192;2023-04-26T11:23:39;99305.25;;;12.71;55.76
68634;BME280;55625;47.072;22.192;2023-04-26T11:26:06;99307.41;;;12.25;56.27
68634;BME280;55625;47.072;22.192;2023-04-26T11:28:35;99311.34;;;12.37;54.38
68634;BME280;55625;47.072;22.192;2023-04-26T11:31:03;99303.72;;;12.43;56.18
68634;BME280;55625;47.072;22.192;2023-04-26T11:33:30;99300.88;;;12.61;57.73
68634;BME280;55625;47.072;22.192;2023-04-26T11:35:58;99302.56;;;12.77;59.39
68634;BME280;55625;47.072;22.192;2023-04-26T11:38:26;99314.97;;;12.56;55.10
68634;BME280;55625;47.072;22.192;2023-04-26T11:41:03;99305.56;;;12.73;55.10
68634;BME280;55625;47.072;22.192;2023-04-26T11:46:01;99316.53;;;13.08;53.16
68634;BME280;55625;47.072;22.192;2023-04-26T11:48:27;99307.44;;;12.86;52.33
68634;BME280;55625;47.072;22.192;2023-04-26T11:50:59;99303.50;;;13.16;52.51
68634;BME280;55625;47.072;22.192;2023-04-26T11:53:39;99306.66;;;13.84;52.63
68634;BME280;55625;47.072;22.192;2023-04-26T11:56:13;99312.84;;;14.21;52.51
68634;BME280;55625;47.072;22.192;2023-04-26T11:58:47;99302.50;;;14.24;49.53
68634;BME280;55625;47.072;22.192;2023-04-26T12:01:25;99301.81;;;14.29;52.98
68634;BME280;55625;47.072;22.192;2023-04-26T12:03:54;99304.06;;;14.10;49.33
68634;BME280;55625;47.072;22.192;2023-04-26T12:06:29;99303.09;;;14.28;48.31
68634;BME280;55625;47.072;22.192;2023-04-26T12:08:59;99307.75;;;14.02;49.83
68634;BME280;55625;47.072;22.192;2023-04-26T12:11:25;99300.03;;;14.17;50.95
68634;BME280;55625;47.072;22.192;2023-04-26T12:13:51;99306.13;;;14.10;52.11
68634;BME280;55625;47.072;22.192;2023-04-26T12:16:17;99304.47;;;14.33;49.30
68634;BME280;55625;47.072;22.192;2023-04-26T12:18:49;99301.56;;;14.03;48.65
68634;BME280;55625;47.072;22.192;2023-04-26T12:21:17;99296.53;;;13.98;50.06
68634;BME280;55625;47.072;22.192;2023-04-26T12:23:43;99297.41;;;13.89;51.39
68634;BME280;55625;47.072;22.192;2023-04-26T12:26:12;99302.53;;;14.00;51.34
68634;BME280;55625;47.072;22.192;2023-04-26T12:28:38;99301.84;;;13.90;52.85
68634;BME280;55625;47.072;22.192;2023-04-26T12:31:04;99306.03;;;13.56;53.51
68634;BME280;55625;47.072;22.192;2023-04-26T12:33:31;99295.50;;;13.05;51.38
68634;BME280;55625;47.072;22.192;2023-04-26T12:36:08;99289.38;;;13.31;50.84
68634;BME280;55625;47.072;22.192;2023-04-26T12:38:34;99292.91;;;13.26;52.60
68634;BME280;55625;47.072;22.192;2023-04-26T12:41:01;99295.63;;;13.20;53.17
68634;BME280;55625;47.072;22.192;2023-04-26T12:43:27;99294.53;;;13.09;50.18
68634;BME280;55625;47.072;22.192;2023-04-26T12:45:53;99298.50;;;13.02;50.64
68634;BME280;55625;47.072;22.192;2023-04-26T12:48:18;99294.91;;;12.92;53.43
68634;BME280;55625;47.072;22.192;2023-04-26T12:50:44;99303.06;;;12.66;53.11
68634;BME280;55625;47.072;22.192;2023-04-26T12:53:10;99309.72;;;12.54;53.18
68634;BME280;55625;47.072;22.192;2023-04-26T12:55:37;99306.75;;;12.39;53.24
68634;BME280;55625;47.072;22.192;2023-04-26T12:58:02;99308.50;;;12.37;54.23
68634;BME280;55625;47.072;22.192;2023-04-26T13:00:28;99302.63;;;12.59;54.50
68634;BME280;55625;47.072;22.192;2023-04-26T13:02:54;99309.41;;;12.61;54.82
68634;BME280;55625;47.072;22.192;2023-04-26T13:05:21;99303.94;;;12.82;54.97
68634;BME280;55625;47.072;22.192;2023-04-26T13:07:49;99305.47;;;13.01;54.77
68634;BME280;55625;47.072;22.192;2023-04-26T13:10:16;99312.41;;;13.09;54.48
68634;BME280;55625;47.072;22.192;2023-04-26T13:12:42;99312.41;;;13.09;53.84
68634;BME280;55625;47.072;22.192;2023-04-26T13:15:08;99323.28;;;12.78;54.45